sensor_id;sensor_type;location;lat;lon;timestamp;P1;durP1;ratioP1;P2;durP2;ratioP2
49592;SDS011;35499;51.482;4.264;2023-03-01T00:01:54;10.60;;;7.23;;
49592;SDS011;35499;51.482;4.264;2023-03-01T00:04:19;11.67;;;7.97;;
49592;SDS011;35499;51.482;4.264;2023-03-01T00:06:45;10.63;;;6.57;;
49592;SDS011;35499;51.482;4.264;2023-03-01T00:09:13;13.45;;;7.70;;
49592;SDS011;35499;51.482;4.264;2023-03-01T00:11:39;10.25;;;7.38;;
49592;SDS011;35499;51.482;4.264;2023-03-01T00:14:04;12.13;;;7.53;;
49592;SDS011;35499;51.482;4.264;2023-03-01T00:16:36;10.98;;;6.78;;
49592;SDS011;35499;51.482;4.264;2023-03-01T00:19:04;12.35;;;7.82;;
49592;SDS011;35499;51.482;4.264;2023-03-01T00:21:30;12.50;;;6.97;;
49592;SDS011;35499;51.482;4.264;2023-03-01T00:23:56;12.23;;;7.40;;
49592;SDS011;35499;51.482;4.264;2023-03-01T00:26:22;15.00;;;8.00;;
49592;SDS011;35499;51.482;4.264;2023-03-01T00:28:49;16.17;;;8.00;;
49592;SDS011;35499;51.482;4.264;2023-03-01T00:31:16;12.90;;;6.68;;
49592;SDS011;35499;51.482;4.264;2023-03-01T00:33:43;13.85;;;7.45;;
49592;SDS011;35499;51.482;4.264;2023-03-01T00:36:10;14.02;;;9.00;;
49592;SDS011;35499;51.482;4.264;2023-03-01T00:38:38;15.45;;;8.18;;
49592;SDS011;35499;51.482;4.264;2023-03-01T00:41:05;12.77;;;6.40;;
49592;SDS011;35499;51.482;4.264;2023-03-01T00:43:32;11.82;;;8.93;;
49592;SDS011;35499;51.482;4.264;2023-03-01T00:46:01;14.77;;;8.35;;
49592;SDS011;35499;51.482;4.264;2023-03-01T00:48:29;15.80;;;8.60;;
49592;SDS011;35499;51.482;4.264;2023-03-01T00:50:54;11.35;;;7.47;;
49592;SDS011;35499;51.482;4.264;2023-03-01T00:53:19;12.47;;;6.57;;
49592;SDS011;35499;51.482;4.264;2023-03-01T00:55:45;11.43;;;8.20;;
49592;SDS011;35499;51.482;4.264;2023-03-01T00:58:10;11.70;;;7.40;;
49592;SDS011;35499;51.482;4.264;2023-03-01T01:00:35;14.70;;;8.17;;
49592;SDS011;35499;51.482;4.264;2023-03-01T01:03:00;10.13;;;6.57;;
49592;SDS011;35499;51.482;4.264;2023-03-01T01:05:26;12.03;;;7.27;;
49592;SDS011;35499;51.482;4.264;2023-03-01T01:07:51;11.02;;;7.35;;
49592;SDS011;35499;51.482;4.264;2023-03-01T01:10:16;12.98;;;7.65;;
49592;SDS011;35499;51.482;4.264;2023-03-01T01:12:43;12.20;;;7.90;;
49592;SDS011;35499;51.482;4.264;2023-03-01T01:15:13;12.05;;;6.88;;
49592;SDS011;35499;51.482;4.264;2023-03-01T01:17:41;10.68;;;7.78;;
49592;SDS011;35499;51.482;4.264;2023-03-01T01:20:07;15.35;;;8.27;;
49592;SDS011;35499;51.482;4.264;2023-03-01T01:22:33;10.65;;;8.50;;
49592;SDS011;35499;51.482;4.264;2023-03-01T01:24:58;12.90;;;7.03;;
49592;SDS011;35499;51.482;4.264;2023-03-01T01:27:23;14.57;;;7.60;;
49592;SDS011;35499;51.482;4.264;2023-03-01T01:29:49;13.38;;;7.85;;
49592;SDS011;35499;51.482;4.264;2023-03-01T01:32:14;15.57;;;8.73;;
49592;SDS011;35499;51.482;4.264;2023-03-01T01:34:39;13.43;;;8.70;;
49592;SDS011;35499;51.482;4.264;2023-03-01T01:37:05;12.88;;;7.43;;
49592;SDS011;35499;51.482;4.264;2023-03-01T01:39:32;15.65;;;9.18;;
49592;SDS011;35499;51.482;4.264;2023-03-01T01:41:59;13.15;;;7.93;;
49592;SDS011;35499;51.482;4.264;2023-03-01T01:44:26;14.23;;;8.40;;
49592;SDS011;35499;51.482;4.264;2023-03-01T01:57:07;15.23;;;8.88;;
49592;SDS011;35499;51.482;4.264;2023-03-01T01:59:37;13.73;;;8.05;;
49592;SDS011;35499;51.482;4.264;2023-03-01T02:02:04;15.95;;;8.77;;
49592;SDS011;35499;51.482;4.264;2023-03-01T02:04:30;15.75;;;9.13;;
49592;SDS011;35499;51.482;4.264;2023-03-01T02:07:08;16.02;;;8.20;;
49592;SDS011;35499;51.482;4.264;2023-03-01T02:09:43;16.92;;;9.05;;
49592;SDS011;35499;51.482;4.264;2023-03-01T02:12:12;14.48;;;7.45;;
49592;SDS011;35499;51.482;4.264;2023-03-01T02:14:38;17.90;;;9.98;;
49592;SDS011;35499;51.482;4.264;2023-03-01T02:17:04;16.97;;;9.13;;
49592;SDS011;35499;51.482;4.264;2023-03-01T02:22:24;15.10;;;9.40;;
49592;SDS011;35499;51.482;4.264;2023-03-01T02:30:33;14.10;;;8.90;;
49592;SDS011;35499;51.482;4.264;2023-03-01T02:32:59;13.75;;;8.77;;
49592;SDS011;35499;51.482;4.264;2023-03-01T02:35:27;12.88;;;8.30;;
49592;SDS011;35499;51.482;4.264;2023-03-01T02:37:55;16.83;;;9.90;;
49592;SDS011;35499;51.482;4.264;2023-03-01T02:40:22;14.20;;;7.00;;
49592;SDS011;35499;51.482;4.264;2023-03-01T02:42:52;16.63;;;9.27;;
49592;SDS011;35499;51.482;4.264;2023-03-01T02:45:20;16.02;;;7.00;;
49592;SDS011;35499;51.482;4.264;2023-03-01T02:47:46;14.40;;;8.18;;
49592;SDS011;35499;51.482;4.264;2023-03-01T02:55:46;17.73;;;9.63;;
49592;SDS011;35499;51.482;4.264;2023-03-01T02:58:11;17.73;;;8.88;;
49592;SDS011;35499;51.482;4.264;2023-03-01T03:00:37;17.88;;;9.10;;
49592;SDS011;35499;51.482;4.264;2023-03-01T03:03:10;18.00;;;9.15;;
49592;SDS011;35499;51.482;4.264;2023-03-01T03:05:39;12.60;;;9.05;;
49592;SDS011;35499;51.482;4.264;2023-03-01T03:08:05;19.50;;;9.90;;
49592;SDS011;35499;51.482;4.264;2023-03-01T03:10:36;14.63;;;8.93;;
49592;SDS011;35499;51.482;4.264;2023-03-01T03:13:08;14.85;;;9.43;;
49592;SDS011;35499;51.482;4.264;2023-03-01T03:15:35;14.05;;;8.60;;
49592;SDS011;35499;51.482;4.264;2023-03-01T03:18:01;12.52;;;6.43;;
49592;SDS011;35499;51.482;4.264;2023-03-01T03:22:55;15.25;;;8.20;;
49592;SDS011;35499;51.482;4.264;2023-03-01T03:25:21;14.60;;;8.80;;
49592;SDS011;35499;51.482;4.264;2023-03-01T03:27:48;17.88;;;9.23;;
49592;SDS011;35499;51.482;4.264;2023-03-01T03:30:16;15.18;;;7.63;;
49592;SDS011;35499;51.482;4.264;2023-03-01T03:32:44;15.32;;;7.55;;
49592;SDS011;35499;51.482;4.264;2023-03-01T03:35:17;13.95;;;8.25;;
49592;SDS011;35499;51.482;4.264;2023-03-01T03:37:47;16.50;;;9.27;;
49592;SDS011;35499;51.482;4.264;2023-03-01T03:40:29;16.52;;;9.23;;
49592;SDS011;35499;51.482;4.264;2023-03-01T03:42:56;14.80;;;9.05;;
49592;SDS011;35499;51.482;4.264;2023-03-01T03:45:22;13.43;;;6.88;;
49592;SDS011;35499;51.482;4.264;2023-03-01T03:47:47;14.73;;;8.30;;
49592;SDS011;35499;51.482;4.264;2023-03-01T03:50:13;14.07;;;8.90;;
49592;SDS011;35499;51.482;4.264;2023-03-01T03:52:40;16.83;;;8.55;;
49592;SDS011;35499;51.482;4.264;2023-03-01T03:55:06;15.13;;;8.88;;
49592;SDS011;35499;51.482;4.264;2023-03-01T03:57:41;16.38;;;9.25;;
49592;SDS011;35499;51.482;4.264;2023-03-01T04:00:08;13.07;;;7.85;;
49592;SDS011;35499;51.482;4.264;2023-03-01T04:02:40;15.25;;;8.35;;
49592;SDS011;35499;51.482;4.264;2023-03-01T04:05:07;13.63;;;9.10;;
49592;SDS011;35499;51.482;4.264;2023-03-01T04:07:37;21.20;;;10.82;;
49592;SDS011;35499;51.482;4.264;2023-03-01T04:10:07;16.77;;;8.90;;
49592;SDS011;35499;51.482;4.264;2023-03-01T04:12:39;17.08;;;10.07;;
49592;SDS011;35499;51.482;4.264;2023-03-01T04:15:06;18.40;;;9.77;;
49592;SDS011;35499;51.482;4.264;2023-03-01T04:17:38;17.05;;;9.68;;
49592;SDS011;35499;51.482;4.264;2023-03-01T04:20:11;16.75;;;9.38;;
49592;SDS011;35499;51.482;4.264;2023-03-01T04:22:38;17.08;;;8.98;;
49592;SDS011;35499;51.482;4.264;2023-03-01T04:25:05;17.10;;;10.07;;
49592;SDS011;35499;51.482;4.264;2023-03-01T04:27:32;16.38;;;11.25;;
49592;SDS011;35499;51.482;4.264;2023-03-01T04:30:01;16.70;;;10.02;;
49592;SDS011;35499;51.482;4.264;2023-03-01T04:32:28;16.45;;;9.60;;
49592;SDS011;35499;51.482;4.264;2023-03-01T04:34:53;13.65;;;6.85;;
49592;SDS011;35499;51.482;4.264;2023-03-01T04:37:18;19.33;;;9.93;;
49592;SDS011;35499;51.482;4.264;2023-03-01T04:39:44;20.20;;;9.53;;
49592;SDS011;35499;51.482;4.264;2023-03-01T04:42:12;16.48;;;8.80;;
49592;SDS011;35499;51.482;4.264;2023-03-01T04:44:38;13.45;;;7.75;;
49592;SDS011;35499;51.482;4.264;2023-03-01T04:47:04;17.42;;;9.30;;
49592;SDS011;35499;51.482;4.264;2023-03-01T04:49:29;19.17;;;10.37;;
49592;SDS011;35499;51.482;4.264;2023-03-01T04:51:54;11.07;;;6.40;;
49592;SDS011;35499;51.482;4.264;2023-03-01T04:54:20;17.88;;;10.02;;
49592;SDS011;35499;51.482;4.264;2023-03-01T04:56:46;18.88;;;7.63;;
49592;SDS011;35499;51.482;4.264;2023-03-01T04:59:11;16.92;;;9.63;;
49592;SDS011;35499;51.482;4.264;2023-03-01T05:01:37;15.40;;;8.80;;
49592;SDS011;35499;51.482;4.264;2023-03-01T05:04:03;13.77;;;9.73;;
49592;SDS011;35499;51.482;4.264;2023-03-01T05:06:30;21.10;;;10.25;;
49592;SDS011;35499;51.482;4.264;2023-03-01T05:08:56;17.15;;;10.30;;
49592;SDS011;35499;51.482;4.264;2023-03-01T05:11:22;16.45;;;9.20;;
49592;SDS011;35499;51.482;4.264;2023-03-01T05:13:47;15.40;;;9.57;;
49592;SDS011;35499;51.482;4.264;2023-03-01T05:16:15;19.40;;;10.07;;
49592;SDS011;35499;51.482;4.264;2023-03-01T05:18:41;24.67;;;10.73;;
49592;SDS011;35499;51.482;4.264;2023-03-01T05:21:09;14.27;;;8.52;;
49592;SDS011;35499;51.482;4.264;2023-03-01T05:23:36;18.08;;;8.48;;
49592;SDS011;35499;51.482;4.264;2023-03-01T05:26:03;14.70;;;6.90;;
49592;SDS011;35499;51.482;4.264;2023-03-01T05:28:30;18.05;;;9.75;;
49592;SDS011;35499;51.482;4.264;2023-03-01T05:30:56;16.85;;;8.43;;
49592;SDS011;35499;51.482;4.264;2023-03-01T05:33:23;17.70;;;9.63;;
49592;SDS011;35499;51.482;4.264;2023-03-01T05:35:49;19.23;;;9.27;;
49592;SDS011;35499;51.482;4.264;2023-03-01T05:38:16;18.60;;;9.55;;
49592;SDS011;35499;51.482;4.264;2023-03-01T05:40:42;15.77;;;8.30;;
49592;SDS011;35499;51.482;4.264;2023-03-01T05:43:09;15.73;;;8.93;;
49592;SDS011;35499;51.482;4.264;2023-03-01T05:45:36;22.67;;;9.23;;
49592;SDS011;35499;51.482;4.264;2023-03-01T05:48:03;13.90;;;8.32;;
49592;SDS011;35499;51.482;4.264;2023-03-01T05:50:30;18.02;;;9.93;;
49592;SDS011;35499;51.482;4.264;2023-03-01T05:52:59;17.50;;;9.13;;
49592;SDS011;35499;51.482;4.264;2023-03-01T05:55:26;7.90;;;5.22;;
49592;SDS011;35499;51.482;4.264;2023-03-01T05:57:52;19.48;;;8.55;;
49592;SDS011;35499;51.482;4.264;2023-03-01T06:00:18;17.97;;;8.37;;
49592;SDS011;35499;51.482;4.264;2023-03-01T06:02:47;14.05;;;7.25;;
49592;SDS011;35499;51.482;4.264;2023-03-01T06:05:14;15.50;;;7.53;;
49592;SDS011;35499;51.482;4.264;2023-03-01T06:10:05;12.25;;;7.22;;
49592;SDS011;35499;51.482;4.264;2023-03-01T06:12:33;10.43;;;6.40;;
49592;SDS011;35499;51.482;4.264;2023-03-01T06:15:00;16.13;;;8.00;;
49592;SDS011;35499;51.482;4.264;2023-03-01T06:17:26;15.68;;;8.38;;
49592;SDS011;35499;51.482;4.264;2023-03-01T06:19:53;11.13;;;6.43;;
49592;SDS011;35499;51.482;4.264;2023-03-01T06:22:22;7.37;;;5.90;;
49592;SDS011;35499;51.482;4.264;2023-03-01T06:24:47;12.57;;;7.35;;
49592;SDS011;35499;51.482;4.264;2023-03-01T06:27:12;13.52;;;5.88;;
49592;SDS011;35499;51.482;4.264;2023-03-01T06:29:38;12.95;;;6.97;;
49592;SDS011;35499;51.482;4.264;2023-03-01T06:32:03;12.80;;;7.33;;
49592;SDS011;35499;51.482;4.264;2023-03-01T06:34:29;12.02;;;5.60;;
49592;SDS011;35499;51.482;4.264;2023-03-01T06:36:54;11.27;;;7.15;;
49592;SDS011;35499;51.482;4.264;2023-03-01T06:39:20;13.07;;;7.77;;
49592;SDS011;35499;51.482;4.264;2023-03-01T06:41:45;10.43;;;6.57;;
49592;SDS011;35499;51.482;4.264;2023-03-01T06:44:10;10.82;;;6.40;;
49592;SDS011;35499;51.482;4.264;2023-03-01T06:46:36;12.65;;;7.13;;
49592;SDS011;35499;51.482;4.264;2023-03-01T06:49:01;12.80;;;5.90;;
49592;SDS011;35499;51.482;4.264;2023-03-01T06:51:29;14.18;;;7.63;;
49592;SDS011;35499;51.482;4.264;2023-03-01T06:53:54;6.65;;;4.18;;
49592;SDS011;35499;51.482;4.264;2023-03-01T06:56:20;15.27;;;8.30;;
49592;SDS011;35499;51.482;4.264;2023-03-01T06:58:45;9.97;;;6.33;;
49592;SDS011;35499;51.482;4.264;2023-03-01T07:01:10;10.53;;;4.20;;
49592;SDS011;35499;51.482;4.264;2023-03-01T07:03:36;13.13;;;6.37;;
49592;SDS011;35499;51.482;4.264;2023-03-01T07:06:01;15.40;;;8.30;;
49592;SDS011;35499;51.482;4.264;2023-03-01T07:08:26;16.63;;;8.80;;
49592;SDS011;35499;51.482;4.264;2023-03-01T07:10:58;9.90;;;5.80;;
49592;SDS011;35499;51.482;4.264;2023-03-01T07:13:24;13.02;;;8.75;;
49592;SDS011;35499;51.482;4.264;2023-03-01T07:15:49;9.90;;;6.95;;
49592;SDS011;35499;51.482;4.264;2023-03-01T07:18:15;13.05;;;7.15;;
49592;SDS011;35499;51.482;4.264;2023-03-01T07:20:40;12.37;;;7.63;;
49592;SDS011;35499;51.482;4.264;2023-03-01T07:23:05;14.47;;;8.27;;
49592;SDS011;35499;51.482;4.264;2023-03-01T07:25:31;12.18;;;7.22;;
49592;SDS011;35499;51.482;4.264;2023-03-01T07:27:57;13.88;;;7.57;;
49592;SDS011;35499;51.482;4.264;2023-03-01T07:30:22;10.75;;;4.97;;
49592;SDS011;35499;51.482;4.264;2023-03-01T07:32:50;14.45;;;8.48;;
49592;SDS011;35499;51.482;4.264;2023-03-01T07:35:16;11.15;;;6.60;;
49592;SDS011;35499;51.482;4.264;2023-03-01T07:37:41;13.90;;;8.60;;
49592;SDS011;35499;51.482;4.264;2023-03-01T07:40:07;11.43;;;6.05;;
49592;SDS011;35499;51.482;4.264;2023-03-01T07:42:33;13.50;;;8.25;;
49592;SDS011;35499;51.482;4.264;2023-03-01T07:44:58;12.27;;;7.53;;
49592;SDS011;35499;51.482;4.264;2023-03-01T07:47:24;14.23;;;9.13;;
49592;SDS011;35499;51.482;4.264;2023-03-01T07:49:49;13.87;;;7.90;;
49592;SDS011;35499;51.482;4.264;2023-03-01T07:52:14;13.88;;;8.38;;
49592;SDS011;35499;51.482;4.264;2023-03-01T07:54:42;12.67;;;7.87;;
49592;SDS011;35499;51.482;4.264;2023-03-01T07:57:09;15.60;;;8.35;;
49592;SDS011;35499;51.482;4.264;2023-03-01T07:59:34;10.93;;;6.93;;
49592;SDS011;35499;51.482;4.264;2023-03-01T08:02:00;11.82;;;7.38;;
49592;SDS011;35499;51.482;4.264;2023-03-01T08:04:25;11.50;;;6.97;;
49592;SDS011;35499;51.482;4.264;2023-03-01T08:06:51;12.32;;;8.20;;
49592;SDS011;35499;51.482;4.264;2023-03-01T08:09:17;10.43;;;7.10;;
49592;SDS011;35499;51.482;4.264;2023-03-01T08:11:42;12.60;;;7.93;;
49592;SDS011;35499;51.482;4.264;2023-03-01T08:14:08;11.73;;;7.32;;
49592;SDS011;35499;51.482;4.264;2023-03-01T08:16:34;9.17;;;6.13;;
49592;SDS011;35499;51.482;4.264;2023-03-01T08:19:06;11.57;;;6.65;;
49592;SDS011;35499;51.482;4.264;2023-03-01T08:21:33;10.35;;;5.63;;
49592;SDS011;35499;51.482;4.264;2023-03-01T08:24:05;13.25;;;6.15;;
49592;SDS011;35499;51.482;4.264;2023-03-01T08:26:31;9.80;;;6.47;;
49592;SDS011;35499;51.482;4.264;2023-03-01T08:28:57;9.43;;;5.85;;
49592;SDS011;35499;51.482;4.264;2023-03-01T08:31:45;10.45;;;6.10;;
49592;SDS011;35499;51.482;4.264;2023-03-01T08:34:11;8.82;;;5.65;;
49592;SDS011;35499;51.482;4.264;2023-03-01T08:36:39;9.82;;;6.32;;
49592;SDS011;35499;51.482;4.264;2023-03-01T08:39:06;9.57;;;5.93;;
49592;SDS011;35499;51.482;4.264;2023-03-01T08:41:32;9.23;;;6.03;;
49592;SDS011;35499;51.482;4.264;2023-03-01T08:43:57;11.13;;;5.70;;
49592;SDS011;35499;51.482;4.264;2023-03-01T08:46:26;8.95;;;5.80;;
49592;SDS011;35499;51.482;4.264;2023-03-01T08:48:53;11.27;;;5.78;;
49592;SDS011;35499;51.482;4.264;2023-03-01T08:51:19;8.32;;;5.53;;
49592;SDS011;35499;51.482;4.264;2023-03-01T08:56:10;9.13;;;5.63;;
49592;SDS011;35499;51.482;4.264;2023-03-01T08:58:36;8.85;;;5.05;;
49592;SDS011;35499;51.482;4.264;2023-03-01T09:01:08;9.93;;;5.80;;
49592;SDS011;35499;51.482;4.264;2023-03-01T09:03:35;8.02;;;5.78;;
49592;SDS011;35499;51.482;4.264;2023-03-01T09:06:01;7.35;;;4.85;;
49592;SDS011;35499;51.482;4.264;2023-03-01T09:08:27;9.88;;;5.13;;
49592;SDS011;35499;51.482;4.264;2023-03-01T09:10:52;8.60;;;5.07;;
49592;SDS011;35499;51.482;4.264;2023-03-01T09:13:17;7.13;;;5.13;;
49592;SDS011;35499;51.482;4.264;2023-03-01T09:15:43;10.67;;;5.30;;
49592;SDS011;35499;51.482;4.264;2023-03-01T09:18:08;7.90;;;5.07;;
49592;SDS011;35499;51.482;4.264;2023-03-01T09:20:33;7.65;;;4.95;;
49592;SDS011;35499;51.482;4.264;2023-03-01T09:22:59;6.53;;;4.50;;
49592;SDS011;35499;51.482;4.264;2023-03-01T09:25:24;7.32;;;4.57;;
49592;SDS011;35499;51.482;4.264;2023-03-01T09:27:53;7.03;;;4.63;;
49592;SDS011;35499;51.482;4.264;2023-03-01T09:30:20;7.95;;;5.13;;
49592;SDS011;35499;51.482;4.264;2023-03-01T09:32:49;7.80;;;4.78;;
49592;SDS011;35499;51.482;4.264;2023-03-01T09:35:14;7.60;;;4.90;;
49592;SDS011;35499;51.482;4.264;2023-03-01T09:37:39;10.25;;;5.05;;
49592;SDS011;35499;51.482;4.264;2023-03-01T09:40:12;6.25;;;4.45;;
49592;SDS011;35499;51.482;4.264;2023-03-01T09:42:45;7.20;;;4.47;;
49592;SDS011;35499;51.482;4.264;2023-03-01T09:45:18;7.47;;;4.25;;
49592;SDS011;35499;51.482;4.264;2023-03-01T09:47:52;6.97;;;3.78;;
49592;SDS011;35499;51.482;4.264;2023-03-01T09:50:20;7.03;;;4.28;;
49592;SDS011;35499;51.482;4.264;2023-03-01T09:53:00;6.82;;;4.25;;
49592;SDS011;35499;51.482;4.264;2023-03-01T09:55:31;7.13;;;3.97;;
49592;SDS011;35499;51.482;4.264;2023-03-01T10:09:34;6.97;;;3.85;;
49592;SDS011;35499;51.482;4.264;2023-03-01T10:12:02;6.97;;;4.03;;
49592;SDS011;35499;51.482;4.264;2023-03-01T10:14:35;6.82;;;3.70;;
49592;SDS011;35499;51.482;4.264;2023-03-01T10:17:19;8.45;;;4.00;;
49592;SDS011;35499;51.482;4.264;2023-03-01T10:19:49;6.65;;;3.83;;
49592;SDS011;35499;51.482;4.264;2023-03-01T10:22:16;8.10;;;4.40;;
49592;SDS011;35499;51.482;4.264;2023-03-01T10:24:53;7.68;;;3.20;;
49592;SDS011;35499;51.482;4.264;2023-03-01T10:30:05;6.72;;;3.40;;
49592;SDS011;35499;51.482;4.264;2023-03-01T10:32:37;6.15;;;3.40;;
49592;SDS011;35499;51.482;4.264;2023-03-01T10:35:19;6.53;;;3.75;;
49592;SDS011;35499;51.482;4.264;2023-03-01T10:40:32;7.30;;;3.08;;
49592;SDS011;35499;51.482;4.264;2023-03-01T10:43:00;6.75;;;3.40;;
49592;SDS011;35499;51.482;4.264;2023-03-01T10:48:08;6.45;;;3.95;;
49592;SDS011;35499;51.482;4.264;2023-03-01T10:50:38;6.10;;;3.40;;
49592;SDS011;35499;51.482;4.264;2023-03-01T10:53:16;6.50;;;3.40;;
49592;SDS011;35499;51.482;4.264;2023-03-01T10:55:46;6.57;;;3.72;;
49592;SDS011;35499;51.482;4.264;2023-03-01T10:58:21;5.85;;;3.75;;
49592;SDS011;35499;51.482;4.264;2023-03-01T11:03:27;6.53;;;3.55;;
49592;SDS011;35499;51.482;4.264;2023-03-01T11:05:59;5.88;;;4.10;;
49592;SDS011;35499;51.482;4.264;2023-03-01T11:11:10;5.93;;;3.03;;
49592;SDS011;35499;51.482;4.264;2023-03-01T11:13:52;5.07;;;3.15;;
49592;SDS011;35499;51.482;4.264;2023-03-01T11:16:38;7.93;;;3.15;;
49592;SDS011;35499;51.482;4.264;2023-03-01T11:21:34;5.85;;;3.33;;
49592;SDS011;35499;51.482;4.264;2023-03-01T11:24:04;6.63;;;3.47;;
49592;SDS011;35499;51.482;4.264;2023-03-01T11:26:35;6.15;;;3.47;;
49592;SDS011;35499;51.482;4.264;2023-03-01T11:29:05;4.95;;;2.88;;
49592;SDS011;35499;51.482;4.264;2023-03-01T11:31:41;5.68;;;3.03;;
49592;SDS011;35499;51.482;4.264;2023-03-01T11:34:11;5.68;;;3.20;;
49592;SDS011;35499;51.482;4.264;2023-03-01T11:36:56;6.82;;;3.60;;
49592;SDS011;35499;51.482;4.264;2023-03-01T11:39:31;5.82;;;3.30;;
49592;SDS011;35499;51.482;4.264;2023-03-01T11:42:12;4.35;;;2.65;;
49592;SDS011;35499;51.482;4.264;2023-03-01T11:44:42;7.68;;;3.13;;
49592;SDS011;35499;51.482;4.264;2023-03-01T11:47:24;6.15;;;3.55;;
49592;SDS011;35499;51.482;4.264;2023-03-01T12:00:57;5.97;;;2.80;;
49592;SDS011;35499;51.482;4.264;2023-03-01T12:06:32;7.40;;;3.35;;
49592;SDS011;35499;51.482;4.264;2023-03-01T12:19:51;5.38;;;3.20;;
49592;SDS011;35499;51.482;4.264;2023-03-01T12:22:34;7.10;;;3.25;;
49592;SDS011;35499;51.482;4.264;2023-03-01T12:50:48;5.30;;;3.35;;
49592;SDS011;35499;51.482;4.264;2023-03-01T12:55:49;7.15;;;3.63;;
49592;SDS011;35499;51.482;4.264;2023-03-01T12:58:20;5.13;;;2.95;;
49592;SDS011;35499;51.482;4.264;2023-03-01T13:04:00;6.38;;;3.35;;
49592;SDS011;35499;51.482;4.264;2023-03-01T13:09:29;6.72;;;3.47;;
49592;SDS011;35499;51.482;4.264;2023-03-01T13:17:56;4.75;;;3.10;;
49592;SDS011;35499;51.482;4.264;2023-03-01T13:20:28;6.18;;;3.35;;
49592;SDS011;35499;51.482;4.264;2023-03-01T13:23:07;6.75;;;3.85;;
49592;SDS011;35499;51.482;4.264;2023-03-01T13:26:02;6.28;;;3.22;;
49592;SDS011;35499;51.482;4.264;2023-03-01T13:28:38;5.90;;;3.53;;
49592;SDS011;35499;51.482;4.264;2023-03-01T13:31:56;5.35;;;2.83;;
49592;SDS011;35499;51.482;4.264;2023-03-01T13:33:55;7.22;;;3.85;;
49592;SDS011;35499;51.482;4.264;2023-03-01T13:44:11;5.20;;;3.22;;
49592;SDS011;35499;51.482;4.264;2023-03-01T13:46:44;6.05;;;3.35;;
49592;SDS011;35499;51.482;4.264;2023-03-01T13:49:18;6.82;;;3.35;;
49592;SDS011;35499;51.482;4.264;2023-03-01T13:51:46;7.55;;;3.45;;
49592;SDS011;35499;51.482;4.264;2023-03-01T13:54:12;6.15;;;3.15;;
49592;SDS011;35499;51.482;4.264;2023-03-01T13:56:39;6.07;;;3.40;;
49592;SDS011;35499;51.482;4.264;2023-03-01T13:59:06;6.50;;;3.40;;
49592;SDS011;35499;51.482;4.264;2023-03-01T14:01:40;6.53;;;3.17;;
49592;SDS011;35499;51.482;4.264;2023-03-01T14:04:25;8.38;;;3.33;;
49592;SDS011;35499;51.482;4.264;2023-03-01T14:09:56;5.75;;;3.80;;
49592;SDS011;35499;51.482;4.264;2023-03-01T14:12:42;8.13;;;3.35;;
49592;SDS011;35499;51.482;4.264;2023-03-01T14:18:00;6.15;;;3.47;;
49592;SDS011;35499;51.482;4.264;2023-03-01T14:20:38;6.65;;;3.28;;
49592;SDS011;35499;51.482;4.264;2023-03-01T14:23:13;6.63;;;3.75;;
49592;SDS011;35499;51.482;4.264;2023-03-01T14:25:46;7.47;;;3.85;;
49592;SDS011;35499;51.482;4.264;2023-03-01T14:28:15;6.38;;;2.67;;
49592;SDS011;35499;51.482;4.264;2023-03-01T14:30:42;5.15;;;3.30;;
49592;SDS011;35499;51.482;4.264;2023-03-01T14:33:22;6.50;;;3.55;;
49592;SDS011;35499;51.482;4.264;2023-03-01T14:38:30;6.18;;;3.47;;
49592;SDS011;35499;51.482;4.264;2023-03-01T14:41:17;6.47;;;3.45;;
49592;SDS011;35499;51.482;4.264;2023-03-01T14:43:55;8.95;;;3.55;;
49592;SDS011;35499;51.482;4.264;2023-03-01T14:49:32;5.95;;;3.30;;
49592;SDS011;35499;51.482;4.264;2023-03-01T14:52:01;6.28;;;3.20;;
49592;SDS011;35499;51.482;4.264;2023-03-01T14:54:40;6.57;;;3.28;;
49592;SDS011;35499;51.482;4.264;2023-03-01T14:57:14;6.63;;;3.08;;
49592;SDS011;35499;51.482;4.264;2023-03-01T14:59:41;8.43;;;3.13;;
49592;SDS011;35499;51.482;4.264;2023-03-01T15:02:08;6.85;;;2.47;;
49592;SDS011;35499;51.482;4.264;2023-03-01T15:04:42;3.63;;;2.03;;
49592;SDS011;35499;51.482;4.264;2023-03-01T15:07:10;5.22;;;2.50;;
49592;SDS011;35499;51.482;4.264;2023-03-01T15:09:38;3.75;;;2.58;;
49592;SDS011;35499;51.482;4.264;2023-03-01T15:17:55;5.45;;;3.03;;
49592;SDS011;35499;51.482;4.264;2023-03-01T15:20:23;5.20;;;2.90;;
49592;SDS011;35499;51.482;4.264;2023-03-01T15:22:51;5.55;;;2.95;;
49592;SDS011;35499;51.482;4.264;2023-03-01T15:25:18;6.78;;;3.38;;
49592;SDS011;35499;51.482;4.264;2023-03-01T15:27:45;5.40;;;2.78;;
49592;SDS011;35499;51.482;4.264;2023-03-01T15:33:47;5.93;;;3.17;;
49592;SDS011;35499;51.482;4.264;2023-03-01T15:35:49;9.30;;;3.05;;
49592;SDS011;35499;51.482;4.264;2023-03-01T15:40:54;5.75;;;3.03;;
49592;SDS011;35499;51.482;4.264;2023-03-01T15:43:44;6.15;;;3.15;;
49592;SDS011;35499;51.482;4.264;2023-03-01T15:48:50;5.82;;;2.60;;
49592;SDS011;35499;51.482;4.264;2023-03-01T15:51:19;7.05;;;3.67;;
49592;SDS011;35499;51.482;4.264;2023-03-01T15:53:50;7.43;;;3.50;;
49592;SDS011;35499;51.482;4.264;2023-03-01T15:56:17;6.50;;;3.40;;
49592;SDS011;35499;51.482;4.264;2023-03-01T15:58:42;5.70;;;2.30;;
49592;SDS011;35499;51.482;4.264;2023-03-01T16:01:14;5.85;;;3.33;;
49592;SDS011;35499;51.482;4.264;2023-03-01T16:03:41;8.35;;;3.95;;
49592;SDS011;35499;51.482;4.264;2023-03-01T16:06:08;5.82;;;3.20;;
49592;SDS011;35499;51.482;4.264;2023-03-01T16:08:35;6.57;;;3.55;;
49592;SDS011;35499;51.482;4.264;2023-03-01T16:11:00;6.45;;;3.88;;
49592;SDS011;35499;51.482;4.264;2023-03-01T16:13:31;7.60;;;3.88;;
49592;SDS011;35499;51.482;4.264;2023-03-01T16:15:57;6.95;;;3.28;;
49592;SDS011;35499;51.482;4.264;2023-03-01T16:18:22;5.25;;;2.83;;
49592;SDS011;35499;51.482;4.264;2023-03-01T16:20:48;7.40;;;3.57;;
49592;SDS011;35499;51.482;4.264;2023-03-01T16:23:14;5.40;;;2.92;;
49592;SDS011;35499;51.482;4.264;2023-03-01T16:25:39;6.18;;;3.20;;
49592;SDS011;35499;51.482;4.264;2023-03-01T16:28:05;8.20;;;3.43;;
49592;SDS011;35499;51.482;4.264;2023-03-01T16:30:33;6.07;;;3.30;;
49592;SDS011;35499;51.482;4.264;2023-03-01T16:33:00;7.00;;;3.53;;
49592;SDS011;35499;51.482;4.264;2023-03-01T16:35:26;7.93;;;4.53;;
49592;SDS011;35499;51.482;4.264;2023-03-01T16:37:51;6.72;;;3.80;;
49592;SDS011;35499;51.482;4.264;2023-03-01T16:40:24;8.10;;;4.05;;
49592;SDS011;35499;51.482;4.264;2023-03-01T16:42:51;7.93;;;4.30;;
49592;SDS011;35499;51.482;4.264;2023-03-01T16:45:18;8.43;;;3.88;;
49592;SDS011;35499;51.482;4.264;2023-03-01T16:47:44;9.10;;;4.28;;
49592;SDS011;35499;51.482;4.264;2023-03-01T16:50:10;6.15;;;3.58;;
49592;SDS011;35499;51.482;4.264;2023-03-01T16:52:36;6.47;;;3.13;;
49592;SDS011;35499;51.482;4.264;2023-03-01T16:55:05;7.07;;;3.55;;
49592;SDS011;35499;51.482;4.264;2023-03-01T16:57:33;7.15;;;3.65;;
49592;SDS011;35499;51.482;4.264;2023-03-01T16:59:59;7.35;;;3.70;;
49592;SDS011;35499;51.482;4.264;2023-03-01T17:02:24;7.35;;;2.97;;
49592;SDS011;35499;51.482;4.264;2023-03-01T17:04:53;9.80;;;3.63;;
49592;SDS011;35499;51.482;4.264;2023-03-01T17:07:19;6.35;;;3.70;;
49592;SDS011;35499;51.482;4.264;2023-03-01T17:09:45;7.60;;;3.55;;
49592;SDS011;35499;51.482;4.264;2023-03-01T17:12:13;8.43;;;3.83;;
49592;SDS011;35499;51.482;4.264;2023-03-01T17:14:41;10.52;;;3.67;;
49592;SDS011;35499;51.482;4.264;2023-03-01T17:17:08;5.97;;;3.15;;
49592;SDS011;35499;51.482;4.264;2023-03-01T17:19:34;7.13;;;3.28;;
49592;SDS011;35499;51.482;4.264;2023-03-01T17:22:03;9.60;;;4.13;;
49592;SDS011;35499;51.482;4.264;2023-03-01T17:24:31;6.15;;;3.58;;
49592;SDS011;35499;51.482;4.264;2023-03-01T17:26:58;8.07;;;3.58;;